NOZ666 ENAL-ENBR
Flight info
| Callsign | NOZ666 |
|---|---|
| Flight time | 0h 32m |
| Altitude | 26000 |
| Route | TUTOP DCT NIDGI |
| Aircraft | B738/M-SDE2E3FGHIRWXY/LB1 |
Departure
| Time | 2026-04-27 18:48 |
|---|---|
| Airport | Ålesund Airport (ENAL) |
Arrival
| Time | 2026-04-27 19:20 |
|---|---|
| Airport | Bergen Airport, Flesland (ENBR) |
| Time | Latitude | Longitude | Altitude | Speed | Heading |
|---|---|---|---|---|---|
| 2026-04-27 18:31 | 62.55901 | 6.11388 | 70 ft | 0 kts | 152° |
| 2026-04-27 18:39 | 62.55918 | 6.11369 | 69 ft | 4 kts | 156° |
| 2026-04-27 18:40 | 62.55936 | 6.11351 | 70 ft | 0 kts | 155° |
| 2026-04-27 18:43 | 62.55933 | 6.11353 | 71 ft | 2 kts | 163° |
| 2026-04-27 18:43 | 62.55913 | 6.11303 | 69 ft | 8 kts | 245° |
| 2026-04-27 18:44 | 62.55896 | 6.11185 | 71 ft | 9 kts | 266° |
| 2026-04-27 18:44 | 62.55906 | 6.11059 | 72 ft | 8 kts | 285° |
| 2026-04-27 18:44 | 62.55917 | 6.10945 | 71 ft | 8 kts | 282° |
| 2026-04-27 18:44 | 62.55928 | 6.10826 | 75 ft | 8 kts | 282° |
| 2026-04-27 18:45 | 62.55939 | 6.10685 | 70 ft | 12 kts | 269° |
| 2026-04-27 18:45 | 62.55918 | 6.10487 | 67 ft | 15 kts | 255° |
| 2026-04-27 18:45 | 62.55873 | 6.10254 | 59 ft | 18 kts | 245° |
| 2026-04-27 18:45 | 62.55820 | 6.10001 | 52 ft | 20 kts | 245° |
| 2026-04-27 18:46 | 62.55759 | 6.09732 | 52 ft | 20 kts | 243° |
| 2026-04-27 18:46 | 62.55698 | 6.09437 | 42 ft | 22 kts | 244° |
| 2026-04-27 18:46 | 62.55637 | 6.09139 | 38 ft | 12 kts | 246° |
| 2026-04-27 18:46 | 62.55594 | 6.09009 | 39 ft | 11 kts | 180° |
| 2026-04-27 18:47 | 62.55600 | 6.09116 | 40 ft | 11 kts | 4° |
| 2026-04-27 18:47 | 62.55649 | 6.09209 | 38 ft | 11 kts | 79° |
| 2026-04-27 18:47 | 62.55681 | 6.09377 | 41 ft | 23 kts | 67° |
| 2026-04-27 18:47 | 62.55853 | 6.10153 | 56 ft | 90 kts | 64° |
| 2026-04-27 18:48 | 62.56207 | 6.11767 | 102 ft | 143 kts | 65° |
| 2026-04-27 18:48 | 62.56669 | 6.13761 | 677 ft | 149 kts | 56° |
| 2026-04-27 18:48 | 62.57243 | 6.15784 | 1160 ft | 171 kts | 66° |
| 2026-04-27 18:48 | 62.57374 | 6.18461 | 1622 ft | 193 kts | 101° |
| 2026-04-27 18:49 | 62.56708 | 6.21147 | 1893 ft | 218 kts | 138° |
| 2026-04-27 18:49 | 62.55272 | 6.22328 | 2315 ft | 230 kts | 177° |
| 2026-04-27 18:49 | 62.53678 | 6.22224 | 2895 ft | 233 kts | 181° |
| 2026-04-27 18:49 | 62.52036 | 6.22121 | 3536 ft | 234 kts | 181° |
| 2026-04-27 18:50 | 62.50425 | 6.22052 | 4110 ft | 236 kts | 181° |
| 2026-04-27 18:50 | 62.48771 | 6.22003 | 4678 ft | 239 kts | 181° |
| 2026-04-27 18:50 | 62.47107 | 6.21672 | 5195 ft | 243 kts | 199° |
| 2026-04-27 18:50 | 62.45654 | 6.19831 | 5751 ft | 243 kts | 217° |
| 2026-04-27 18:51 | 62.44299 | 6.17596 | 6277 ft | 247 kts | 218° |
| 2026-04-27 18:51 | 62.42933 | 6.15310 | 6811 ft | 250 kts | 218° |
| 2026-04-27 18:51 | 62.41551 | 6.12995 | 7297 ft | 253 kts | 219° |
| 2026-04-27 18:51 | 62.40169 | 6.10688 | 7790 ft | 255 kts | 219° |
| 2026-04-27 18:52 | 62.38750 | 6.08327 | 8289 ft | 258 kts | 219° |
| 2026-04-27 18:52 | 62.37310 | 6.05937 | 8725 ft | 263 kts | 219° |
| 2026-04-27 18:52 | 62.35836 | 6.03499 | 9157 ft | 271 kts | 219° |
| 2026-04-27 18:53 | 62.32688 | 5.98302 | 10081 ft | 296 kts | 219° |
| 2026-04-27 18:53 | 62.31038 | 5.95592 | 10764 ft | 301 kts | 220° |
| 2026-04-27 18:53 | 62.29311 | 5.92755 | 10977 ft | 324 kts | 220° |
| 2026-04-27 18:53 | 62.27457 | 5.89712 | 11174 ft | 346 kts | 219° |
| 2026-04-27 18:54 | 62.25480 | 5.86478 | 11345 ft | 367 kts | 219° |
| 2026-04-27 18:54 | 62.23436 | 5.83144 | 11691 ft | 380 kts | 219° |
| 2026-04-27 18:54 | 62.21314 | 5.79692 | 12304 ft | 384 kts | 219° |
| 2026-04-27 18:54 | 62.19179 | 5.76229 | 13076 ft | 384 kts | 219° |
| 2026-04-27 18:55 | 62.17035 | 5.72754 | 13766 ft | 388 kts | 219° |
| 2026-04-27 18:55 | 62.14864 | 5.69240 | 14425 ft | 393 kts | 219° |
| 2026-04-27 18:55 | 62.12669 | 5.65692 | 15048 ft | 397 kts | 219° |
| 2026-04-27 18:55 | 62.10457 | 5.62122 | 15690 ft | 401 kts | 219° |
| 2026-04-27 18:56 | 62.08220 | 5.58518 | 16339 ft | 405 kts | 219° |
| 2026-04-27 18:56 | 62.05958 | 5.54878 | 16951 ft | 409 kts | 219° |
| 2026-04-27 18:56 | 62.03697 | 5.51250 | 17556 ft | 414 kts | 220° |
| 2026-04-27 18:56 | 62.01374 | 5.47571 | 18158 ft | 419 kts | 218° |
| 2026-04-27 18:57 | 61.98830 | 5.44456 | 18747 ft | 427 kts | 207° |
| 2026-04-27 18:57 | 61.96023 | 5.42248 | 19258 ft | 433 kts | 201° |
| 2026-04-27 18:57 | 61.93141 | 5.40268 | 19762 ft | 437 kts | 200° |
| 2026-04-27 18:57 | 61.90230 | 5.38301 | 20242 ft | 441 kts | 200° |
| 2026-04-27 18:58 | 61.87293 | 5.36310 | 20736 ft | 445 kts | 200° |
| 2026-04-27 18:58 | 61.84320 | 5.34275 | 21220 ft | 449 kts | 200° |
| 2026-04-27 18:58 | 61.81341 | 5.32221 | 21707 ft | 453 kts | 201° |
| 2026-04-27 18:58 | 61.78331 | 5.30133 | 22202 ft | 456 kts | 201° |
| 2026-04-27 18:59 | 61.75301 | 5.28026 | 22429 ft | 463 kts | 201° |
| 2026-04-27 18:59 | 61.72158 | 5.26190 | 22424 ft | 475 kts | 192° |
| 2026-04-27 18:59 | 61.68829 | 5.25496 | 22441 ft | 486 kts | 182° |
| 2026-04-27 18:59 | 61.65468 | 5.25848 | 22437 ft | 491 kts | 176° |
| 2026-04-27 19:00 | 61.62060 | 5.26419 | 22425 ft | 490 kts | 176° |
| 2026-04-27 19:00 | 61.58660 | 5.26975 | 22437 ft | 490 kts | 176° |
| 2026-04-27 19:00 | 61.55265 | 5.27507 | 22419 ft | 490 kts | 177° |
| 2026-04-27 19:00 | 61.51862 | 5.28015 | 22430 ft | 489 kts | 177° |
| 2026-04-27 19:01 | 61.48463 | 5.28503 | 22422 ft | 488 kts | 177° |
| 2026-04-27 19:01 | 61.45077 | 5.28979 | 22425 ft | 487 kts | 177° |
| 2026-04-27 19:01 | 61.41728 | 5.29444 | 22428 ft | 487 kts | 177° |
| 2026-04-27 19:01 | 61.38364 | 5.29909 | 22108 ft | 482 kts | 177° |
| 2026-04-27 19:02 | 61.35039 | 5.30369 | 21491 ft | 474 kts | 177° |
| 2026-04-27 19:02 | 61.31768 | 5.30821 | 20826 ft | 467 kts | 177° |
| 2026-04-27 19:02 | 61.28540 | 5.31267 | 20150 ft | 462 kts | 177° |
| 2026-04-27 19:02 | 61.25350 | 5.31706 | 19485 ft | 457 kts | 177° |
| 2026-04-27 19:03 | 61.22194 | 5.32141 | 18822 ft | 452 kts | 177° |
| 2026-04-27 19:03 | 61.19075 | 5.32569 | 18084 ft | 447 kts | 177° |
| 2026-04-27 19:03 | 61.15995 | 5.32991 | 17371 ft | 441 kts | 176° |
| 2026-04-27 19:03 | 61.13974 | 5.33269 | 16938 ft | 437 kts | 177° |
| 2026-04-27 19:04 | 61.09948 | 5.33819 | 16049 ft | 430 kts | 176° |
| 2026-04-27 19:04 | 61.06988 | 5.34223 | 15406 ft | 424 kts | 176° |
| 2026-04-27 19:04 | 61.04055 | 5.34622 | 14773 ft | 419 kts | 176° |
| 2026-04-27 19:04 | 61.01198 | 5.35010 | 14152 ft | 414 kts | 176° |
| 2026-04-27 19:05 | 60.98331 | 5.35398 | 13449 ft | 410 kts | 176° |
| 2026-04-27 19:05 | 60.95498 | 5.35781 | 12801 ft | 405 kts | 176° |
| 2026-04-27 19:05 | 60.92705 | 5.36159 | 12172 ft | 400 kts | 176° |
| 2026-04-27 19:05 | 60.89940 | 5.36532 | 11622 ft | 394 kts | 176° |
| 2026-04-27 19:06 | 60.87259 | 5.36893 | 11491 ft | 377 kts | 176° |
| 2026-04-27 19:06 | 60.84693 | 5.37239 | 11334 ft | 363 kts | 176° |
| 2026-04-27 19:06 | 60.82214 | 5.37572 | 11181 ft | 350 kts | 176° |
| 2026-04-27 19:06 | 60.79846 | 5.37889 | 11041 ft | 338 kts | 176° |
| 2026-04-27 19:07 | 60.77534 | 5.38198 | 10903 ft | 328 kts | 176° |
| 2026-04-27 19:07 | 60.75289 | 5.38498 | 10759 ft | 318 kts | 176° |
| 2026-04-27 19:07 | 60.73077 | 5.38793 | 10349 ft | 319 kts | 176° |
| 2026-04-27 19:07 | 60.70887 | 5.39085 | 10129 ft | 312 kts | 176° |
| 2026-04-27 19:08 | 60.68747 | 5.39370 | 9965 ft | 303 kts | 176° |
| 2026-04-27 19:08 | 60.66689 | 5.39644 | 9951 ft | 290 kts | 176° |
| 2026-04-27 19:08 | 60.64674 | 5.39911 | 9446 ft | 296 kts | 176° |
| 2026-04-27 19:08 | 60.62628 | 5.40183 | 9099 ft | 294 kts | 176° |
| 2026-04-27 19:09 | 60.60582 | 5.40453 | 8788 ft | 293 kts | 176° |
| 2026-04-27 19:09 | 60.58557 | 5.40721 | 8485 ft | 290 kts | 176° |
| 2026-04-27 19:09 | 60.56578 | 5.40983 | 8203 ft | 288 kts | 176° |
| 2026-04-27 19:09 | 60.54587 | 5.41245 | 7921 ft | 286 kts | 176° |
| 2026-04-27 19:10 | 60.52607 | 5.41506 | 7631 ft | 284 kts | 176° |
| 2026-04-27 19:10 | 60.50643 | 5.41765 | 7347 ft | 282 kts | 176° |
| 2026-04-27 19:10 | 60.48692 | 5.42021 | 7072 ft | 279 kts | 176° |
| 2026-04-27 19:10 | 60.47405 | 5.42191 | 6887 ft | 278 kts | 176° |
| 2026-04-27 19:11 | 60.44828 | 5.42528 | 6524 ft | 276 kts | 176° |
| 2026-04-27 19:11 | 60.42913 | 5.42779 | 6237 ft | 275 kts | 176° |
| 2026-04-27 19:11 | 60.41017 | 5.43027 | 6082 ft | 267 kts | 176° |
| 2026-04-27 19:11 | 60.39234 | 5.43259 | 5981 ft | 248 kts | 175° |
| 2026-04-27 19:12 | 60.37586 | 5.43474 | 5854 ft | 231 kts | 175° |
| 2026-04-27 19:12 | 60.36032 | 5.43676 | 5730 ft | 217 kts | 175° |
| 2026-04-27 19:12 | 60.34567 | 5.43868 | 5403 ft | 212 kts | 175° |
| 2026-04-27 19:12 | 60.33077 | 5.44063 | 4951 ft | 213 kts | 175° |
| 2026-04-27 19:13 | 60.31619 | 5.44252 | 4661 ft | 204 kts | 175° |
| 2026-04-27 19:13 | 60.30244 | 5.44431 | 4426 ft | 193 kts | 175° |
| 2026-04-27 19:13 | 60.28944 | 5.44600 | 4222 ft | 181 kts | 175° |
| 2026-04-27 19:13 | 60.27683 | 5.44763 | 4133 ft | 183 kts | 175° |
| 2026-04-27 19:14 | 60.26413 | 5.44928 | 4042 ft | 181 kts | 175° |
| 2026-04-27 19:14 | 60.25176 | 5.44888 | 3997 ft | 177 kts | 198° |
| 2026-04-27 19:14 | 60.24050 | 5.43787 | 3922 ft | 182 kts | 206° |
| 2026-04-27 19:14 | 60.22935 | 5.42664 | 3717 ft | 181 kts | 206° |
| 2026-04-27 19:15 | 60.21813 | 5.41544 | 3411 ft | 176 kts | 206° |
| 2026-04-27 19:15 | 60.20764 | 5.40498 | 3229 ft | 161 kts | 206° |
| 2026-04-27 19:15 | 60.19804 | 5.39421 | 3024 ft | 156 kts | 214° |
| 2026-04-27 19:15 | 60.19009 | 5.37967 | 2858 ft | 153 kts | 232° |
| 2026-04-27 19:16 | 60.18465 | 5.36186 | 2738 ft | 148 kts | 247° |
| 2026-04-27 19:16 | 60.18239 | 5.34906 | 2606 ft | 145 kts | 255° |
| 2026-04-27 19:16 | 60.18093 | 5.32237 | 2385 ft | 145 kts | 273° |
| 2026-04-27 19:16 | 60.18262 | 5.30246 | 2232 ft | 145 kts | 287° |
| 2026-04-27 19:17 | 60.18658 | 5.28423 | 2079 ft | 144 kts | 301° |
| 2026-04-27 19:17 | 60.19269 | 5.26820 | 1916 ft | 142 kts | 315° |
| 2026-04-27 19:17 | 60.20032 | 5.25588 | 1764 ft | 140 kts | 328° |
| 2026-04-27 19:17 | 60.20890 | 5.24763 | 1622 ft | 137 kts | 341° |
| 2026-04-27 19:18 | 60.21817 | 5.24282 | 1447 ft | 139 kts | 350° |
| 2026-04-27 19:18 | 60.22761 | 5.23999 | 1263 ft | 135 kts | 352° |
| 2026-04-27 19:18 | 60.23699 | 5.23729 | 1075 ft | 137 kts | 350° |
| 2026-04-27 19:18 | 60.24633 | 5.23388 | 927 ft | 135 kts | 348° |
| 2026-04-27 19:19 | 60.25555 | 5.23044 | 726 ft | 136 kts | 349° |
| 2026-04-27 19:19 | 60.26504 | 5.22749 | 532 ft | 138 kts | 351° |
| 2026-04-27 19:19 | 60.27440 | 5.22445 | 362 ft | 135 kts | 349° |
| 2026-04-27 19:19 | 60.28368 | 5.22143 | 189 ft | 133 kts | 349° |
| 2026-04-27 19:20 | 60.29217 | 5.21857 | 158 ft | 109 kts | 350° |
| 2026-04-27 19:20 | 60.29611 | 5.21727 | 147 ft | 25 kts | 351° |
| 2026-04-27 19:20 | 60.29705 | 5.21792 | 148 ft | 12 kts | 66° |
| 2026-04-27 19:20 | 60.29716 | 5.21965 | 147 ft | 13 kts | 108° |
| 2026-04-27 19:21 | 60.29641 | 5.22036 | 147 ft | 12 kts | 169° |
| 2026-04-27 19:21 | 60.29546 | 5.22073 | 151 ft | 17 kts | 169° |
| 2026-04-27 19:21 | 60.29407 | 5.22117 | 157 ft | 24 kts | 174° |
| 2026-04-27 19:21 | 60.29242 | 5.22174 | 162 ft | 23 kts | 170° |
| 2026-04-27 19:22 | 60.29084 | 5.22226 | 161 ft | 23 kts | 171° |
| 2026-04-27 19:22 | 60.28931 | 5.22277 | 161 ft | 22 kts | 171° |
| 2026-04-27 19:22 | 60.28798 | 5.22321 | 161 ft | 15 kts | 167° |
| 2026-04-27 19:22 | 60.28706 | 5.22389 | 163 ft | 14 kts | 131° |
| 2026-04-27 19:23 | 60.28712 | 5.22573 | 166 ft | 14 kts | 76° |
| 2026-04-27 19:23 | 60.28747 | 5.22735 | 171 ft | 10 kts | 38° |
| 2026-04-27 19:23 | 60.28772 | 5.22812 | 172 ft | 7 kts | 78° |
| 2026-04-27 19:23 | 60.28779 | 5.22887 | 172 ft | 4 kts | 80° |
| 2026-04-27 19:24 | 60.28779 | 5.22892 | 172 ft | 0 kts | 81° |